sensor_id;sensor_type;location;lat;lon;timestamp;pressure;altitude;pressure_sealevel;temperature;humidity
55675;BME280;41562;44.330;23.802;2022-09-11T00:02:12;99883.13;;;19.02;92.20
55675;BME280;41562;44.330;23.802;2022-09-11T00:04:46;99881.63;;;18.92;93.05
55675;BME280;41562;44.330;23.802;2022-09-11T00:07:21;99873.75;;;18.99;92.84
55675;BME280;41562;44.330;23.802;2022-09-11T00:09:55;99875.44;;;19.04;92.17
55675;BME280;41562;44.330;23.802;2022-09-11T00:12:24;99878.69;;;18.85;93.28
55675;BME280;41562;44.330;23.802;2022-09-11T00:14:54;99879.44;;;18.73;95.01
55675;BME280;41562;44.330;23.802;2022-09-11T00:17:27;99870.91;;;18.83;94.19
55675;BME280;41562;44.330;23.802;2022-09-11T00:19:55;99875.88;;;18.94;93.02
55675;BME280;41562;44.330;23.802;2022-09-11T00:22:28;99884.00;;;18.81;93.39
55675;BME280;41562;44.330;23.802;2022-09-11T00:24:58;99879.47;;;18.85;92.75
55675;BME280;41562;44.330;23.802;2022-09-11T00:27:32;99873.81;;;18.78;93.42
55675;BME280;41562;44.330;23.802;2022-09-11T00:30:00;99880.56;;;18.72;93.68
55675;BME280;41562;44.330;23.802;2022-09-11T00:32:32;99871.41;;;18.65;94.08
55675;BME280;41562;44.330;23.802;2022-09-11T00:34:59;99863.41;;;18.68;93.85
55675;BME280;41562;44.330;23.802;2022-09-11T00:37:29;99870.81;;;18.59;94.21
55675;BME280;41562;44.330;23.802;2022-09-11T00:39:57;99863.97;;;18.53;95.07
55675;BME280;41562;44.330;23.802;2022-09-11T00:42:28;99866.19;;;18.39;95.66
55675;BME280;41562;44.330;23.802;2022-09-11T00:44:57;99868.59;;;18.53;95.59
55675;BME280;41562;44.330;23.802;2022-09-11T00:47:28;99855.59;;;18.67;94.63
55675;BME280;41562;44.330;23.802;2022-09-11T00:50:07;99866.69;;;18.53;94.71
55675;BME280;41562;44.330;23.802;2022-09-11T00:52:47;99872.47;;;18.52;95.53
55675;BME280;41562;44.330;23.802;2022-09-11T00:55:21;99862.88;;;18.54;95.43
55675;BME280;41562;44.330;23.802;2022-09-11T00:57:53;99867.78;;;18.61;94.50
55675;BME280;41562;44.330;23.802;2022-09-11T01:00:27;99872.28;;;18.57;94.77
55675;BME280;41562;44.330;23.802;2022-09-11T01:02:56;99879.41;;;18.61;94.07
55675;BME280;41562;44.330;23.802;2022-09-11T01:05:28;99873.97;;;18.40;95.34
55675;BME280;41562;44.330;23.802;2022-09-11T01:08:04;99866.47;;;18.46;95.08
55675;BME280;41562;44.330;23.802;2022-09-11T01:16:18;99867.06;;;18.31;96.55
55675;BME280;41562;44.330;23.802;2022-09-11T01:25:15;99869.03;;;18.42;95.11
55675;BME280;41562;44.330;23.802;2022-09-11T01:27:58;99874.13;;;18.44;95.11
55675;BME280;41562;44.330;23.802;2022-09-11T01:30:44;99868.44;;;18.37;95.39
55675;BME280;41562;44.330;23.802;2022-09-11T01:36:02;99867.53;;;18.33;95.42
55675;BME280;41562;44.330;23.802;2022-09-11T01:38:34;99873.72;;;18.33;95.35
55675;BME280;41562;44.330;23.802;2022-09-11T01:43:31;99864.88;;;18.45;93.86
55675;BME280;41562;44.330;23.802;2022-09-11T01:46:04;99863.28;;;18.44;93.95
55675;BME280;41562;44.330;23.802;2022-09-11T01:48:43;99858.41;;;18.37;94.13
55675;BME280;41562;44.330;23.802;2022-09-11T01:51:18;99858.78;;;18.48;93.73
55675;BME280;41562;44.330;23.802;2022-09-11T01:53:51;99859.00;;;18.43;93.76
55675;BME280;41562;44.330;23.802;2022-09-11T01:56:26;99858.25;;;18.34;94.38
55675;BME280;41562;44.330;23.802;2022-09-11T01:59:03;99860.25;;;18.25;94.68
55675;BME280;41562;44.330;23.802;2022-09-11T02:01:35;99862.06;;;18.21;95.13
55675;BME280;41562;44.330;23.802;2022-09-11T02:04:13;99863.88;;;18.29;94.75
55675;BME280;41562;44.330;23.802;2022-09-11T02:07:07;99862.91;;;18.33;94.23
55675;BME280;41562;44.330;23.802;2022-09-11T02:09:50;99866.59;;;18.29;94.61
55675;BME280;41562;44.330;23.802;2022-09-11T02:12:23;99856.56;;;18.29;94.35
55675;BME280;41562;44.330;23.802;2022-09-11T02:14:56;99859.16;;;18.26;94.66
55675;BME280;41562;44.330;23.802;2022-09-11T02:20:18;99863.06;;;19.27;94.79
55675;BME280;41562;44.330;23.802;2022-09-11T02:22:49;99859.34;;;19.68;91.62
55675;BME280;41562;44.330;23.802;2022-09-11T02:25:19;99867.84;;;19.66;88.91
55675;BME280;41562;44.330;23.802;2022-09-11T02:27:49;99875.19;;;19.90;88.17
55675;BME280;41562;44.330;23.802;2022-09-11T02:30:20;99866.34;;;19.81;86.39
55675;BME280;41562;44.330;23.802;2022-09-11T02:32:48;99859.34;;;19.80;87.39
55675;BME280;41562;44.330;23.802;2022-09-11T02:35:23;99851.56;;;19.79;88.19
55675;BME280;41562;44.330;23.802;2022-09-11T02:41:16;99865.34;;;19.74;85.61
55675;BME280;41562;44.330;23.802;2022-09-11T02:44:02;99858.00;;;19.62;87.36
55675;BME280;41562;44.330;23.802;2022-09-11T02:46:45;99859.94;;;19.61;87.20
55675;BME280;41562;44.330;23.802;2022-09-11T02:58:09;99865.03;;;19.63;85.60
55675;BME280;41562;44.330;23.802;2022-09-11T03:00:41;99863.78;;;19.48;nan
55675;BME280;41562;44.330;23.802;2022-09-11T03:03:09;99862.84;;;19.32;86.85
55675;BME280;41562;44.330;23.802;2022-09-11T03:05:41;99864.88;;;19.35;86.19
55675;BME280;41562;44.330;23.802;2022-09-11T03:08:16;99865.66;;;19.36;85.82
55675;BME280;41562;44.330;23.802;2022-09-11T03:10:50;99862.38;;;19.30;86.42
55675;BME280;41562;44.330;23.802;2022-09-11T03:13:24;99866.16;;;19.50;85.00
55675;BME280;41562;44.330;23.802;2022-09-11T03:15:55;99865.91;;;19.43;85.38
55675;BME280;41562;44.330;23.802;2022-09-11T03:18:25;99860.47;;;19.43;86.01
55675;BME280;41562;44.330;23.802;2022-09-11T03:20:53;99866.03;;;19.34;85.64
55675;BME280;41562;44.330;23.802;2022-09-11T03:23:30;99868.94;;;19.41;85.56
55675;BME280;41562;44.330;23.802;2022-09-11T03:26:04;99861.72;;;19.33;85.93
55675;BME280;41562;44.330;23.802;2022-09-11T03:28:34;99868.94;;;19.41;84.79
55675;BME280;41562;44.330;23.802;2022-09-11T03:31:14;99871.81;;;19.57;84.34
55675;BME280;41562;44.330;23.802;2022-09-11T03:33:47;99865.22;;;19.21;85.50
55675;BME280;41562;44.330;23.802;2022-09-11T03:36:24;99873.91;;;19.27;85.35
55675;BME280;41562;44.330;23.802;2022-09-11T03:39:01;99880.88;;;19.16;85.92
55675;BME280;41562;44.330;23.802;2022-09-11T03:41:34;99882.59;;;19.20;85.05
55675;BME280;41562;44.330;23.802;2022-09-11T03:44:05;99885.75;;;19.10;85.47
55675;BME280;41562;44.330;23.802;2022-09-11T03:46:35;99881.34;;;19.06;86.03
55675;BME280;41562;44.330;23.802;2022-09-11T03:49:15;99895.03;;;19.09;85.89
55675;BME280;41562;44.330;23.802;2022-09-11T03:51:43;99885.75;;;19.22;85.03
55675;BME280;41562;44.330;23.802;2022-09-11T03:54:15;99897.63;;;19.18;85.08
55675;BME280;41562;44.330;23.802;2022-09-11T03:56:46;99893.22;;;19.25;84.48
55675;BME280;41562;44.330;23.802;2022-09-11T03:59:22;99896.16;;;19.20;84.85
55675;BME280;41562;44.330;23.802;2022-09-11T04:01:50;99903.38;;;19.16;85.24
55675;BME280;41562;44.330;23.802;2022-09-11T04:04:39;99899.19;;;19.19;84.54
55675;BME280;41562;44.330;23.802;2022-09-11T04:07:10;99902.63;;;19.28;84.72
55675;BME280;41562;44.330;23.802;2022-09-11T04:09:41;99897.31;;;19.32;83.81
55675;BME280;41562;44.330;23.802;2022-09-11T04:12:12;99897.63;;;19.18;83.63
55675;BME280;41562;44.330;23.802;2022-09-11T04:14:43;99902.34;;;18.97;84.76
55675;BME280;41562;44.330;23.802;2022-09-11T04:17:15;99900.28;;;18.94;85.75
55675;BME280;41562;44.330;23.802;2022-09-11T04:19:50;99901.22;;;19.10;84.67
55675;BME280;41562;44.330;23.802;2022-09-11T04:22:28;99902.81;;;19.23;85.26
55675;BME280;41562;44.330;23.802;2022-09-11T04:25:10;99911.50;;;19.16;84.23
55675;BME280;41562;44.330;23.802;2022-09-11T04:27:38;99907.81;;;19.21;85.11
55675;BME280;41562;44.330;23.802;2022-09-11T04:30:08;99920.19;;;19.10;85.54
55675;BME280;41562;44.330;23.802;2022-09-11T04:32:35;99914.41;;;18.99;85.32
55675;BME280;41562;44.330;23.802;2022-09-11T04:35:03;99922.28;;;18.92;85.57
55675;BME280;41562;44.330;23.802;2022-09-11T04:37:31;99914.91;;;19.25;84.41
55675;BME280;41562;44.330;23.802;2022-09-11T04:39:59;99908.03;;;19.28;83.44
55675;BME280;41562;44.330;23.802;2022-09-11T04:42:27;99906.03;;;19.61;82.72
55675;BME280;41562;44.330;23.802;2022-09-11T04:44:55;99915.03;;;19.41;84.91
55675;BME280;41562;44.330;23.802;2022-09-11T04:47:22;99910.25;;;19.02;84.50
55675;BME280;41562;44.330;23.802;2022-09-11T04:49:50;99907.81;;;19.21;85.04
55675;BME280;41562;44.330;23.802;2022-09-11T04:52:17;99906.69;;;19.34;83.70
55675;BME280;41562;44.330;23.802;2022-09-11T04:54:45;99910.66;;;18.92;85.79
55675;BME280;41562;44.330;23.802;2022-09-11T04:57:12;99906.59;;;18.98;85.68
55675;BME280;41562;44.330;23.802;2022-09-11T04:59:40;99908.34;;;19.14;85.39
55675;BME280;41562;44.330;23.802;2022-09-11T05:02:07;99912.97;;;19.14;85.56
55675;BME280;41562;44.330;23.802;2022-09-11T05:04:35;99909.59;;;19.29;85.23
55675;BME280;41562;44.330;23.802;2022-09-11T05:07:03;99910.25;;;19.47;83.90
55675;BME280;41562;44.330;23.802;2022-09-11T05:09:30;99906.22;;;19.20;85.26
55675;BME280;41562;44.330;23.802;2022-09-11T05:11:58;99910.03;;;19.19;85.32
55675;BME280;41562;44.330;23.802;2022-09-11T05:14:25;99924.13;;;19.57;84.09
55675;BME280;41562;44.330;23.802;2022-09-11T05:16:52;99912.72;;;19.76;83.03
55675;BME280;41562;44.330;23.802;2022-09-11T05:19:20;99909.69;;;19.53;83.24
55675;BME280;41562;44.330;23.802;2022-09-11T05:21:50;99906.47;;;19.39;83.17
55675;BME280;41562;44.330;23.802;2022-09-11T05:24:18;99916.91;;;19.61;81.85
55675;BME280;41562;44.330;23.802;2022-09-11T05:26:45;99912.81;;;19.67;81.99
55675;BME280;41562;44.330;23.802;2022-09-11T05:29:14;99904.47;;;19.73;82.07
55675;BME280;41562;44.330;23.802;2022-09-11T05:31:42;99907.56;;;20.11;81.32
55675;BME280;41562;44.330;23.802;2022-09-11T05:34:09;99907.34;;;20.40;79.39
55675;BME280;41562;44.330;23.802;2022-09-11T05:36:37;99906.78;;;20.35;79.42
55675;BME280;41562;44.330;23.802;2022-09-11T05:39:05;99909.59;;;20.38;79.86
55675;BME280;41562;44.330;23.802;2022-09-11T05:41:32;99912.34;;;20.66;78.47
55675;BME280;41562;44.330;23.802;2022-09-11T05:44:00;99918.75;;;20.74;77.77
55675;BME280;41562;44.330;23.802;2022-09-11T05:46:27;99916.66;;;21.11;76.90
55675;BME280;41562;44.330;23.802;2022-09-11T05:48:55;99912.28;;;21.53;74.10
55675;BME280;41562;44.330;23.802;2022-09-11T05:51:23;99916.06;;;21.64;73.41
55675;BME280;41562;44.330;23.802;2022-09-11T05:53:52;99913.75;;;21.98;71.12
55675;BME280;41562;44.330;23.802;2022-09-11T05:56:22;99919.31;;;22.21;70.18
55675;BME280;41562;44.330;23.802;2022-09-11T05:58:50;99923.19;;;22.39;69.37
55675;BME280;41562;44.330;23.802;2022-09-11T06:01:21;99928.09;;;22.30;69.67
55675;BME280;41562;44.330;23.802;2022-09-11T06:03:49;99924.81;;;21.89;70.30
55675;BME280;41562;44.330;23.802;2022-09-11T06:06:18;99923.91;;;22.17;70.35
55675;BME280;41562;44.330;23.802;2022-09-11T06:08:47;99921.38;;;21.92;71.03
55675;BME280;41562;44.330;23.802;2022-09-11T06:11:17;99918.56;;;22.04;70.38
55675;BME280;41562;44.330;23.802;2022-09-11T06:13:45;99927.38;;;21.98;70.52
55675;BME280;41562;44.330;23.802;2022-09-11T06:16:18;99922.81;;;21.86;71.77
55675;BME280;41562;44.330;23.802;2022-09-11T06:18:46;99923.06;;;21.97;70.29
55675;BME280;41562;44.330;23.802;2022-09-11T06:21:19;99927.09;;;21.87;70.72
55675;BME280;41562;44.330;23.802;2022-09-11T06:23:47;99925.94;;;21.88;70.95
55675;BME280;41562;44.330;23.802;2022-09-11T06:26:17;99924.75;;;21.70;72.49
55675;BME280;41562;44.330;23.802;2022-09-11T06:28:46;99920.34;;;21.81;71.25
55675;BME280;41562;44.330;23.802;2022-09-11T06:31:18;99915.84;;;22.04;70.79
55675;BME280;41562;44.330;23.802;2022-09-11T06:33:46;99917.59;;;22.13;70.28
55675;BME280;41562;44.330;23.802;2022-09-11T06:36:17;99920.16;;;22.05;69.79
55675;BME280;41562;44.330;23.802;2022-09-11T06:38:45;99920.25;;;21.93;69.74
55675;BME280;41562;44.330;23.802;2022-09-11T06:41:14;99919.06;;;21.94;70.07
55675;BME280;41562;44.330;23.802;2022-09-11T06:43:43;99916.00;;;22.12;70.02
55675;BME280;41562;44.330;23.802;2022-09-11T06:46:13;99918.75;;;21.96;71.14
55675;BME280;41562;44.330;23.802;2022-09-11T06:48:42;99909.53;;;22.00;69.82
55675;BME280;41562;44.330;23.802;2022-09-11T06:51:13;99897.38;;;22.14;70.74
55675;BME280;41562;44.330;23.802;2022-09-11T06:53:41;99907.28;;;22.22;69.71
55675;BME280;41562;44.330;23.802;2022-09-11T06:56:11;99912.03;;;22.25;70.83
55675;BME280;41562;44.330;23.802;2022-09-11T06:58:39;99915.47;;;22.41;72.45
55675;BME280;41562;44.330;23.802;2022-09-11T07:01:10;99918.13;;;22.37;73.03
55675;BME280;41562;44.330;23.802;2022-09-11T07:03:41;99916.19;;;22.57;73.22
55675;BME280;41562;44.330;23.802;2022-09-11T07:06:10;99924.72;;;22.56;70.42
55675;BME280;41562;44.330;23.802;2022-09-11T07:08:37;99932.66;;;22.45;69.49
55675;BME280;41562;44.330;23.802;2022-09-11T07:11:06;99929.88;;;22.41;69.27
55675;BME280;41562;44.330;23.802;2022-09-11T07:13:36;99919.34;;;22.59;68.74
55675;BME280;41562;44.330;23.802;2022-09-11T07:16:06;99917.84;;;22.62;70.20
55675;BME280;41562;44.330;23.802;2022-09-11T07:18:39;99923.50;;;22.53;70.15
55675;BME280;41562;44.330;23.802;2022-09-11T07:23:45;99917.84;;;22.62;69.04
55675;BME280;41562;44.330;23.802;2022-09-11T07:26:14;99915.06;;;22.77;69.64
55675;BME280;41562;44.330;23.802;2022-09-11T07:28:41;99920.00;;;22.91;71.24
55675;BME280;41562;44.330;23.802;2022-09-11T07:31:15;99914.22;;;22.96;69.37
55675;BME280;41562;44.330;23.802;2022-09-11T07:33:48;99921.84;;;23.06;69.28
55675;BME280;41562;44.330;23.802;2022-09-11T07:36:24;99915.59;;;23.06;70.98
55675;BME280;41562;44.330;23.802;2022-09-11T07:38:53;99917.31;;;23.14;73.01
55675;BME280;41562;44.330;23.802;2022-09-11T07:41:22;99920.66;;;23.27;71.96
55675;BME280;41562;44.330;23.802;2022-09-11T07:43:56;99922.75;;;23.14;69.98
55675;BME280;41562;44.330;23.802;2022-09-11T07:46:24;99916.03;;;23.31;72.07
55675;BME280;41562;44.330;23.802;2022-09-11T07:48:54;99914.19;;;23.57;76.22
55675;BME280;41562;44.330;23.802;2022-09-11T07:51:22;99919.50;;;23.50;68.48
55675;BME280;41562;44.330;23.802;2022-09-11T07:53:51;99918.97;;;23.64;68.60
55675;BME280;41562;44.330;23.802;2022-09-11T07:56:21;99913.75;;;23.82;69.44
55675;BME280;41562;44.330;23.802;2022-09-11T07:58:50;99916.63;;;23.66;68.24
55675;BME280;41562;44.330;23.802;2022-09-11T08:01:20;99907.97;;;23.87;68.06
55675;BME280;41562;44.330;23.802;2022-09-11T08:03:52;99920.69;;;23.76;64.64
55675;BME280;41562;44.330;23.802;2022-09-11T08:06:20;99917.97;;;23.76;65.93
55675;BME280;41562;44.330;23.802;2022-09-11T08:08:53;99917.28;;;23.82;64.07
55675;BME280;41562;44.330;23.802;2022-09-11T08:11:22;99917.00;;;23.91;64.93
55675;BME280;41562;44.330;23.802;2022-09-11T08:13:51;99912.28;;;23.88;63.74
55675;BME280;41562;44.330;23.802;2022-09-11T08:16:20;99907.66;;;23.92;59.94
55675;BME280;41562;44.330;23.802;2022-09-11T08:18:49;99899.56;;;23.99;63.29
55675;BME280;41562;44.330;23.802;2022-09-11T08:21:17;99910.81;;;23.94;64.50
55675;BME280;41562;44.330;23.802;2022-09-11T08:23:45;99905.28;;;23.90;63.99
55675;BME280;41562;44.330;23.802;2022-09-11T08:26:25;99903.81;;;23.96;61.29
55675;BME280;41562;44.330;23.802;2022-09-11T08:28:54;99893.56;;;24.16;63.84
55675;BME280;41562;44.330;23.802;2022-09-11T08:31:24;99904.38;;;24.35;62.12
55675;BME280;41562;44.330;23.802;2022-09-11T08:33:53;99907.38;;;24.57;62.06
55675;BME280;41562;44.330;23.802;2022-09-11T08:36:21;99908.66;;;24.66;61.18
55675;BME280;41562;44.330;23.802;2022-09-11T08:38:49;99906.34;;;25.02;66.29
55675;BME280;41562;44.330;23.802;2022-09-11T08:43:53;99900.59;;;25.14;61.96
55675;BME280;41562;44.330;23.802;2022-09-11T08:46:25;99894.97;;;25.00;59.32
55675;BME280;41562;44.330;23.802;2022-09-11T08:51:37;99899.28;;;25.45;60.70
55675;BME280;41562;44.330;23.802;2022-09-11T08:54:05;99892.81;;;25.60;52.63
55675;BME280;41562;44.330;23.802;2022-09-11T08:56:33;99892.88;;;25.74;54.37
55675;BME280;41562;44.330;23.802;2022-09-11T08:59:26;99882.28;;;25.69;57.99
55675;BME280;41562;44.330;23.802;2022-09-11T09:05:01;99881.34;;;25.51;54.81
55675;BME280;41562;44.330;23.802;2022-09-11T09:10:49;99862.16;;;26.06;52.09
55675;BME280;41562;44.330;23.802;2022-09-11T09:19:02;99859.84;;;26.18;52.16
55675;BME280;41562;44.330;23.802;2022-09-11T09:21:36;99852.50;;;26.29;50.97
55675;BME280;41562;44.330;23.802;2022-09-11T09:24:12;99851.75;;;26.43;50.76
55675;BME280;41562;44.330;23.802;2022-09-11T09:26:41;99848.63;;;26.41;49.97
55675;BME280;41562;44.330;23.802;2022-09-11T09:29:18;99854.50;;;26.39;52.94
55675;BME280;41562;44.330;23.802;2022-09-11T09:31:52;99842.75;;;26.39;52.30
55675;BME280;41562;44.330;23.802;2022-09-11T09:34:24;99837.25;;;26.35;49.84
55675;BME280;41562;44.330;23.802;2022-09-11T09:39:23;99838.06;;;26.50;47.49
55675;BME280;41562;44.330;23.802;2022-09-11T09:43:08;99834.91;;;26.45;50.59
55675;BME280;41562;44.330;23.802;2022-09-11T09:47:52;99830.25;;;26.59;47.90
55675;BME280;41562;44.330;23.802;2022-09-11T09:50:26;99824.72;;;26.38;45.49
55675;BME280;41562;44.330;23.802;2022-09-11T09:55:58;99830.06;;;26.10;46.15
55675;BME280;41562;44.330;23.802;2022-09-11T09:58:29;99826.84;;;25.93;46.68
55675;BME280;41562;44.330;23.802;2022-09-11T10:00:59;99827.25;;;25.92;46.33
55675;BME280;41562;44.330;23.802;2022-09-11T10:03:28;99832.44;;;26.11;46.26
55675;BME280;41562;44.330;23.802;2022-09-11T10:05:56;99826.56;;;26.13;47.10
55675;BME280;41562;44.330;23.802;2022-09-11T10:08:35;99835.66;;;26.24;45.76
55675;BME280;41562;44.330;23.802;2022-09-11T10:11:05;99832.56;;;26.43;45.14
55675;BME280;41562;44.330;23.802;2022-09-11T10:13:36;99824.75;;;26.49;43.88
55675;BME280;41562;44.330;23.802;2022-09-11T10:16:19;99824.75;;;26.49;44.88
55675;BME280;41562;44.330;23.802;2022-09-11T10:18:47;99830.25;;;26.52;44.15
55675;BME280;41562;44.330;23.802;2022-09-11T10:21:29;99823.56;;;26.46;44.75
55675;BME280;41562;44.330;23.802;2022-09-11T10:26:45;99810.63;;;26.50;45.16
55675;BME280;41562;44.330;23.802;2022-09-11T10:29:20;99811.28;;;26.15;44.07
55675;BME280;41562;44.330;23.802;2022-09-11T10:31:51;99805.91;;;26.33;44.27
55675;BME280;41562;44.330;23.802;2022-09-11T10:34:20;99801.19;;;26.37;42.29
55675;BME280;41562;44.330;23.802;2022-09-11T10:37:03;99802.41;;;26.47;43.14
55675;BME280;41562;44.330;23.802;2022-09-11T10:39:35;99783.22;;;26.47;42.99
55675;BME280;41562;44.330;23.802;2022-09-11T10:42:24;99778.94;;;26.67;43.02
55675;BME280;41562;44.330;23.802;2022-09-11T10:45:00;99784.03;;;26.54;41.52
55675;BME280;41562;44.330;23.802;2022-09-11T10:47:32;99786.38;;;26.59;40.23
55675;BME280;41562;44.330;23.802;2022-09-11T10:50:20;99787.94;;;26.57;42.34
55675;BME280;41562;44.330;23.802;2022-09-11T10:55:25;99788.69;;;26.36;41.45
55675;BME280;41562;44.330;23.802;2022-09-11T10:57:58;99787.53;;;26.58;41.20
55675;BME280;41562;44.330;23.802;2022-09-11T11:00:29;99777.75;;;26.57;40.67
55675;BME280;41562;44.330;23.802;2022-09-11T11:03:08;99777.34;;;26.62;41.33
55675;BME280;41562;44.330;23.802;2022-09-11T11:14:16;99787.19;;;26.77;39.28
55675;BME280;41562;44.330;23.802;2022-09-11T11:17:02;99779.31;;;26.51;40.17
55675;BME280;41562;44.330;23.802;2022-09-11T11:25:32;99776.94;;;26.46;38.24
55675;BME280;41562;44.330;23.802;2022-09-11T11:28:25;99773.84;;;26.65;39.39
55675;BME280;41562;44.330;23.802;2022-09-11T11:34:06;99772.66;;;26.49;38.95
55675;BME280;41562;44.330;23.802;2022-09-11T11:36:51;99775.81;;;26.75;39.37
55675;BME280;41562;44.330;23.802;2022-09-11T11:39:29;99771.13;;;26.94;39.34
55675;BME280;41562;44.330;23.802;2022-09-11T11:42:16;99768.78;;;26.96;37.86
55675;BME280;41562;44.330;23.802;2022-09-11T11:44:54;99754.66;;;27.01;38.64
55675;BME280;41562;44.330;23.802;2022-09-11T11:47:28;99753.50;;;26.98;38.53
55675;BME280;41562;44.330;23.802;2022-09-11T11:55:24;99749.16;;;26.69;38.19
55675;BME280;41562;44.330;23.802;2022-09-11T12:00:22;99747.19;;;26.62;39.96
55675;BME280;41562;44.330;23.802;2022-09-11T12:05:30;99751.78;;;26.16;40.62
55675;BME280;41562;44.330;23.802;2022-09-11T12:07:59;99741.88;;;25.86;40.84
55675;BME280;41562;44.330;23.802;2022-09-11T12:10:33;99749.19;;;25.61;42.04
55675;BME280;41562;44.330;23.802;2022-09-11T12:13:06;99740.59;;;25.59;40.96
55675;BME280;41562;44.330;23.802;2022-09-11T12:15:35;99737.91;;;25.66;40.63
55675;BME280;41562;44.330;23.802;2022-09-11T12:20:42;99740.22;;;25.64;41.86
55675;BME280;41562;44.330;23.802;2022-09-11T12:28:36;99719.25;;;26.18;39.65
55675;BME280;41562;44.330;23.802;2022-09-11T12:31:06;99722.81;;;26.15;41.28
55675;BME280;41562;44.330;23.802;2022-09-11T12:33:48;99725.22;;;26.34;40.26
55675;BME280;41562;44.330;23.802;2022-09-11T12:36:23;99720.47;;;26.20;40.41
55675;BME280;41562;44.330;23.802;2022-09-11T12:47:23;99715.81;;;26.31;40.03
55675;BME280;41562;44.330;23.802;2022-09-11T12:49:57;99714.22;;;26.23;41.00
55675;BME280;41562;44.330;23.802;2022-09-11T12:52:50;99721.28;;;26.24;41.72
55675;BME280;41562;44.330;23.802;2022-09-11T12:55:39;99705.22;;;26.37;40.40
55675;BME280;41562;44.330;23.802;2022-09-11T13:00:49;99717.56;;;25.67;41.19
55675;BME280;41562;44.330;23.802;2022-09-11T13:03:24;99717.97;;;25.73;41.92
55675;BME280;41562;44.330;23.802;2022-09-11T13:05:57;99718.59;;;25.45;43.53
55675;BME280;41562;44.330;23.802;2022-09-11T13:08:28;99708.41;;;25.42;43.16
55675;BME280;41562;44.330;23.802;2022-09-11T13:14:03;99711.66;;;25.58;42.65
55675;BME280;41562;44.330;23.802;2022-09-11T13:16:32;99707.03;;;25.76;41.89
55675;BME280;41562;44.330;23.802;2022-09-11T13:19:12;99703.09;;;25.74;41.68
55675;BME280;41562;44.330;23.802;2022-09-11T13:21:40;99703.50;;;25.76;42.40
55675;BME280;41562;44.330;23.802;2022-09-11T13:24:28;99699.91;;;25.61;41.91
55675;BME280;41562;44.330;23.802;2022-09-11T13:26:59;99701.91;;;25.71;43.10
55675;BME280;41562;44.330;23.802;2022-09-11T13:29:30;99704.72;;;25.89;43.35
55675;BME280;41562;44.330;23.802;2022-09-11T13:32:12;99693.75;;;25.85;44.11
55675;BME280;41562;44.330;23.802;2022-09-11T13:34:45;99698.41;;;25.74;44.76
55675;BME280;41562;44.330;23.802;2022-09-11T13:37:37;99692.91;;;25.67;45.06
55675;BME280;41562;44.330;23.802;2022-09-11T13:40:16;99711.56;;;25.51;44.50
55675;BME280;41562;44.330;23.802;2022-09-11T13:42:45;99702.94;;;25.45;44.72
55675;BME280;41562;44.330;23.802;2022-09-11T13:45:16;99700.50;;;25.26;44.93
55675;BME280;41562;44.330;23.802;2022-09-11T13:47:45;99694.25;;;25.26;47.12
55675;BME280;41562;44.330;23.802;2022-09-11T13:50:14;99693.34;;;25.11;44.98
55675;BME280;41562;44.330;23.802;2022-09-11T13:52:43;99693.03;;;25.16;45.97
55675;BME280;41562;44.330;23.802;2022-09-11T13:55:18;99684.72;;;25.02;46.29
55675;BME280;41562;44.330;23.802;2022-09-11T13:57:59;99686.66;;;25.01;45.68
55675;BME280;41562;44.330;23.802;2022-09-11T14:00:44;99679.25;;;25.05;45.12
55675;BME280;41562;44.330;23.802;2022-09-11T14:03:25;99689.00;;;24.99;45.91
55675;BME280;41562;44.330;23.802;2022-09-11T14:05:59;99686.16;;;24.89;45.55
55675;BME280;41562;44.330;23.802;2022-09-11T14:08:34;99688.84;;;24.85;46.30
55675;BME280;41562;44.330;23.802;2022-09-11T14:11:04;99672.06;;;24.83;47.89
55675;BME280;41562;44.330;23.802;2022-09-11T14:13:51;99661.91;;;24.87;46.70
55675;BME280;41562;44.330;23.802;2022-09-11T14:16:31;99663.81;;;24.79;45.83
55675;BME280;41562;44.330;23.802;2022-09-11T14:19:06;99657.31;;;24.91;46.05
55675;BME280;41562;44.330;23.802;2022-09-11T14:21:36;99650.69;;;24.96;45.65
55675;BME280;41562;44.330;23.802;2022-09-11T14:27:32;99652.06;;;24.72;44.64
55675;BME280;41562;44.330;23.802;2022-09-11T14:29:58;99651.66;;;24.73;46.10
55675;BME280;41562;44.330;23.802;2022-09-11T14:32:36;99663.38;;;24.74;45.94
55675;BME280;41562;44.330;23.802;2022-09-11T14:35:05;99656.03;;;24.85;45.26
55675;BME280;41562;44.330;23.802;2022-09-11T14:37:42;99655.59;;;24.76;44.50
55675;BME280;41562;44.330;23.802;2022-09-11T14:40:18;99651.06;;;24.94;45.79
55675;BME280;41562;44.330;23.802;2022-09-11T14:42:46;99654.09;;;24.85;45.03
55675;BME280;41562;44.330;23.802;2022-09-11T14:45:21;99646.25;;;24.80;47.75
55675;BME280;41562;44.330;23.802;2022-09-11T14:47:50;99651.34;;;24.82;45.20
55675;BME280;41562;44.330;23.802;2022-09-11T14:50:18;99644.28;;;24.77;44.88
55675;BME280;41562;44.330;23.802;2022-09-11T14:52:45;99646.91;;;24.63;44.96
55675;BME280;41562;44.330;23.802;2022-09-11T14:55:15;99655.97;;;24.71;46.02
55675;BME280;41562;44.330;23.802;2022-09-11T14:57:44;99663.28;;;24.60;46.66
55675;BME280;41562;44.330;23.802;2022-09-11T15:00:16;99673.00;;;24.54;46.45
55675;BME280;41562;44.330;23.802;2022-09-11T15:02:47;99667.44;;;24.39;47.06
55675;BME280;41562;44.330;23.802;2022-09-11T15:05:19;99672.34;;;24.23;49.19
55675;BME280;41562;44.330;23.802;2022-09-11T15:07:46;99671.63;;;24.30;48.61
55675;BME280;41562;44.330;23.802;2022-09-11T15:10:14;99670.44;;;24.27;47.77
55675;BME280;41562;44.330;23.802;2022-09-11T15:12:42;99675.50;;;24.25;47.29
55675;BME280;41562;44.330;23.802;2022-09-11T15:15:10;99680.00;;;24.11;48.81
55675;BME280;41562;44.330;23.802;2022-09-11T15:17:38;99687.66;;;23.98;48.51